Time;durP1;ratioP1;P1;durP2;ratioP2;P2;SDS_P1;SDS_P2;PMS_P1;PMS_P2;Temp;Humidity;BMP_temperature;BMP_pressure;BME280_temperature;BME280_humidity;BME280_pressure;Samples;Min_cycle;Max_cycle;Signal;HPM_P1;HPM_P2
2022/07/21 00:01:12;;;;;;;15.18;6.28;;;;;;;;;;5034197;28;20026;-67
2022/07/21 00:03:38;;;;;;;14.32;6.72;;;;;;;;;;5034920;28;20026;-67
2022/07/21 00:06:03;;;;;;;50.42;8.18;;;;;;;;;;5033770;28;20615;-67
2022/07/21 00:08:29;;;;;;;30.40;7.45;;;;;;;;;;5034717;28;20452;-68
2022/07/21 00:10:54;;;;;;;23.27;8.25;;;;;;;;;;5033897;28;20033;-67
2022/07/21 00:13:19;;;;;;;20.60;9.60;;;;;;;;;;5032176;28;20107;-67
2022/07/21 00:15:44;;;;;;;23.42;10.75;;;;;;;;;;5034708;28;20071;-69
2022/07/21 00:18:10;;;;;;;19.55;11.32;;;;;;;;;;5033103;28;20033;-68
2022/07/21 00:20:35;;;;;;;22.73;10.82;;;;;;;;;;5033975;28;20026;-68
2022/07/21 00:23:00;;;;;;;21.42;9.50;;;;;;;;;;5033331;28;20040;-68
2022/07/21 00:25:26;;;;;;;23.73;11.18;;;;;;;;;;5034876;28;20036;-67
2022/07/21 00:27:51;;;;;;;32.00;12.85;;;;;;;;;;5033402;28;20478;-66
2022/07/21 00:30:16;;;;;;;22.98;12.48;;;;;;;;;;5033873;28;20428;-66
2022/07/21 00:32:42;;;;;;;28.25;13.52;;;;;;;;;;5033350;28;20029;-67
2022/07/21 00:35:08;;;;;;;27.15;14.20;;;;;;;;;;5034448;28;20039;-66
2022/07/21 00:37:34;;;;;;;26.10;13.68;;;;;;;;;;5032999;28;20156;-69
2022/07/21 00:39:59;;;;;;;28.88;14.32;;;;;;;;;;5034158;28;20030;-68
2022/07/21 00:42:28;;;;;;;53.45;16.83;;;;;;;;;;5032983;28;20040;-67
2022/07/21 00:44:54;;;;;;;37.83;16.20;;;;;;;;;;5034007;28;20029;-67
2022/07/21 00:47:26;;;;;;;31.95;16.05;;;;;;;;;;5032843;28;20033;-66
2022/07/21 00:49:51;;;;;;;86.32;19.73;;;;;;;;;;5033906;28;20029;-67
2022/07/21 00:52:17;;;;;;;44.35;16.58;;;;;;;;;;5032704;28;20038;-67
2022/07/21 00:54:43;;;;;;;30.88;15.10;;;;;;;;;;5034292;28;20448;-68
2022/07/21 00:57:08;;;;;;;29.80;14.65;;;;;;;;;;5033276;28;20037;-67
2022/07/21 00:59:34;;;;;;;27.13;13.77;;;;;;;;;;5033871;28;20449;-67
2022/07/21 01:01:59;;;;;;;52.65;18.95;;;;;;;;;;5032651;28;20041;-67
2022/07/21 01:04:26;;;;;;;32.35;16.52;;;;;;;;;;5033455;28;20533;-67
2022/07/21 01:06:51;;;;;;;34.60;16.52;;;;;;;;;;5032360;28;20033;-67
2022/07/21 01:09:17;;;;;;;34.58;16.38;;;;;;;;;;5033524;28;20175;-67
2022/07/21 01:11:43;;;;;;;26.67;14.57;;;;;;;;;;5032786;28;20029;-67
2022/07/21 01:14:08;;;;;;;40.17;17.55;;;;;;;;;;5033108;28;20036;-67
2022/07/21 01:16:33;;;;;;;36.67;17.13;;;;;;;;;;5031665;28;20109;-67
2022/07/21 01:18:59;;;;;;;32.42;16.55;;;;;;;;;;5033291;28;20065;-67
2022/07/21 01:21:29;;;;;;;33.40;16.33;;;;;;;;;;5032927;28;20024;-67
2022/07/21 01:23:54;;;;;;;29.77;15.75;;;;;;;;;;5033301;28;20099;-67
2022/07/21 01:26:19;;;;;;;34.10;17.38;;;;;;;;;;5032348;28;20038;-68
2022/07/21 01:28:45;;;;;;;24.95;13.32;;;;;;;;;;5033331;28;20120;-67
2022/07/21 01:31:10;;;;;;;28.85;13.95;;;;;;;;;;5032234;28;20037;-67
2022/07/21 01:33:36;;;;;;;27.83;14.45;;;;;;;;;;5033297;28;20037;-67
2022/07/21 01:36:01;;;;;;;26.15;13.27;;;;;;;;;;5032369;28;20033;-67
2022/07/21 01:41:28;;;;;;;25.15;12.93;;;;;;;;;;5031282;28;20036;-67
2022/07/21 01:43:54;;;;;;;25.35;11.63;;;;;;;;;;5033069;28;20087;-68
2022/07/21 01:46:19;;;;;;;19.40;11.15;;;;;;;;;;5032145;28;20033;-68
2022/07/21 01:48:44;;;;;;;21.13;9.20;;;;;;;;;;5032513;28;20104;-68
2022/07/21 01:51:10;;;;;;;19.33;8.63;;;;;;;;;;5031687;28;20030;-68
2022/07/21 01:53:35;;;;;;;32.08;11.45;;;;;;;;;;5032110;28;20044;-67
2022/07/21 01:56:00;;;;;;;24.90;10.55;;;;;;;;;;5032104;28;20107;-67
2022/07/21 01:58:26;;;;;;;43.13;11.32;;;;;;;;;;5032698;28;20029;-67
2022/07/21 02:00:51;;;;;;;29.95;10.30;;;;;;;;;;5031983;28;20528;-66
2022/07/21 02:03:16;;;;;;;46.45;13.50;;;;;;;;;;5032723;28;20532;-67
2022/07/21 02:05:41;;;;;;;20.83;9.90;;;;;;;;;;5031653;28;20104;-67
2022/07/21 02:08:07;;;;;;;23.25;10.55;;;;;;;;;;5030868;28;20556;-67
2022/07/21 02:10:32;;;;;;;19.20;9.55;;;;;;;;;;5032034;28;20033;-67
2022/07/21 02:12:57;;;;;;;15.93;9.38;;;;;;;;;;5031477;28;20037;-67
2022/07/21 02:15:22;;;;;;;21.60;9.85;;;;;;;;;;5031719;28;20036;-67
2022/07/21 02:17:48;;;;;;;16.98;9.25;;;;;;;;;;5030267;28;20029;-67
2022/07/21 02:20:13;;;;;;;19.02;9.95;;;;;;;;;;5032124;28;20021;-67
2022/07/21 02:22:38;;;;;;;15.85;8.50;;;;;;;;;;5031579;28;20021;-68
2022/07/21 02:25:04;;;;;;;19.10;9.93;;;;;;;;;;5032593;28;20025;-67
2022/07/21 02:27:29;;;;;;;18.42;8.95;;;;;;;;;;5031361;28;20029;-67
2022/07/21 02:29:54;;;;;;;16.27;9.95;;;;;;;;;;5031141;28;20040;-68
2022/07/21 02:32:20;;;;;;;16.95;9.00;;;;;;;;;;5030358;28;20052;-67
2022/07/21 02:34:45;;;;;;;21.27;10.88;;;;;;;;;;5032266;28;20052;-67
2022/07/21 02:37:10;;;;;;;36.15;13.05;;;;;;;;;;5031398;28;20040;-67
2022/07/21 02:39:35;;;;;;;29.08;12.82;;;;;;;;;;5031206;28;20458;-68
2022/07/21 02:42:01;;;;;;;17.30;10.68;;;;;;;;;;5029626;28;20368;-67
2022/07/21 02:44:26;;;;;;;25.27;11.10;;;;;;;;;;5032045;28;20481;-67
2022/07/21 02:46:51;;;;;;;19.75;10.40;;;;;;;;;;5030890;28;20037;-67
2022/07/21 02:49:16;;;;;;;22.90;11.43;;;;;;;;;;5029661;28;20552;-68
2022/07/21 02:51:42;;;;;;;22.48;11.40;;;;;;;;;;5032150;28;20601;-68
2022/07/21 02:54:07;;;;;;;20.30;10.95;;;;;;;;;;5030501;28;20413;-68
2022/07/21 02:56:32;;;;;;;18.88;11.20;;;;;;;;;;5030954;28;20037;-68
2022/07/21 02:58:57;;;;;;;27.05;12.57;;;;;;;;;;5030443;28;20626;-67
2022/07/21 03:01:23;;;;;;;27.85;13.38;;;;;;;;;;5030853;28;20466;-68
2022/07/21 03:03:48;;;;;;;21.02;12.10;;;;;;;;;;5030097;28;20025;-68
2022/07/21 03:06:13;;;;;;;30.05;14.10;;;;;;;;;;5030847;28;20025;-67
2022/07/21 03:08:38;;;;;;;26.45;12.45;;;;;;;;;;5028185;28;20064;-67
2022/07/21 03:11:03;;;;;;;25.77;12.95;;;;;;;;;;5026506;28;20433;-68
2022/07/21 03:13:29;;;;;;;23.20;13.02;;;;;;;;;;5026759;28;20462;-68
2022/07/21 03:15:54;;;;;;;31.75;14.43;;;;;;;;;;5031547;28;20025;-67
2022/07/21 03:18:19;;;;;;;21.38;12.60;;;;;;;;;;5031341;28;20032;-68
2022/07/21 03:20:45;;;;;;;24.00;12.65;;;;;;;;;;5031299;28;20018;-67
2022/07/21 03:23:10;;;;;;;25.63;13.02;;;;;;;;;;5031281;28;20109;-68
2022/07/21 03:25:35;;;;;;;22.80;12.18;;;;;;;;;;5030488;28;20053;-67
2022/07/21 03:28:01;;;;;;;21.80;12.23;;;;;;;;;;5029177;28;20048;-67
2022/07/21 03:30:26;;;;;;;27.27;13.18;;;;;;;;;;5029181;28;20087;-68
2022/07/21 03:32:51;;;;;;;27.30;14.45;;;;;;;;;;5030928;28;20036;-68
2022/07/21 03:35:17;;;;;;;24.60;12.73;;;;;;;;;;5031381;28;20037;-68
2022/07/21 03:37:44;;;;;;;25.23;12.00;;;;;;;;;;5015178;28;20036;-68
2022/07/21 03:40:13;;;;;;;26.85;13.90;;;;;;;;;;5030933;28;20071;-68
2022/07/21 03:42:38;;;;;;;23.27;11.88;;;;;;;;;;5030901;28;20029;-68
2022/07/21 03:45:04;;;;;;;24.77;12.85;;;;;;;;;;5030804;28;20040;-68
2022/07/21 03:47:29;;;;;;;25.58;13.70;;;;;;;;;;5030596;28;20109;-68
2022/07/21 03:49:54;;;;;;;25.65;13.80;;;;;;;;;;5030902;28;20533;-68
2022/07/21 03:52:20;;;;;;;31.05;15.10;;;;;;;;;;5030803;28;20037;-67
2022/07/21 03:54:45;;;;;;;31.85;14.95;;;;;;;;;;5030878;28;20033;-68
2022/07/21 03:57:10;;;;;;;24.77;14.05;;;;;;;;;;5030721;28;20061;-68
2022/07/21 03:59:35;;;;;;;28.08;13.93;;;;;;;;;;5030577;28;20026;-67
2022/07/21 04:02:01;;;;;;;26.88;14.73;;;;;;;;;;5030851;28;20017;-67
2022/07/21 04:04:26;;;;;;;22.42;13.27;;;;;;;;;;5030903;28;20022;-67
2022/07/21 04:06:51;;;;;;;27.40;14.80;;;;;;;;;;5027933;28;20029;-67
2022/07/21 04:09:17;;;;;;;30.40;15.73;;;;;;;;;;5029810;28;20579;-67
2022/07/21 04:11:42;;;;;;;25.10;13.95;;;;;;;;;;5027512;28;20470;-67
2022/07/21 04:14:07;;;;;;;22.83;13.48;;;;;;;;;;5045887;28;20025;-67
2022/07/21 04:16:33;;;;;;;23.08;13.48;;;;;;;;;;5031083;28;20052;-67
2022/07/21 04:18:58;;;;;;;25.55;14.43;;;;;;;;;;5030737;28;20319;-67
2022/07/21 04:21:23;;;;;;;29.90;15.52;;;;;;;;;;5030608;28;20030;-67
2022/07/21 04:23:48;;;;;;;23.50;14.02;;;;;;;;;;5024320;28;20024;-67
2022/07/21 04:26:14;;;;;;;27.23;14.38;;;;;;;;;;5029304;28;20029;-67
2022/07/21 04:28:39;;;;;;;22.90;12.85;;;;;;;;;;5030295;28;20403;-67
2022/07/21 04:31:04;;;;;;;21.38;13.55;;;;;;;;;;5030465;28;20034;-68
2022/07/21 04:33:29;;;;;;;24.50;13.52;;;;;;;;;;5030371;28;20056;-68
2022/07/21 04:35:55;;;;;;;23.20;14.23;;;;;;;;;;5030564;28;20029;-68
2022/07/21 04:38:20;;;;;;;27.13;14.05;;;;;;;;;;5032892;28;20017;-67
2022/07/21 04:40:45;;;;;;;22.48;12.88;;;;;;;;;;5034247;28;20029;-68
2022/07/21 04:43:11;;;;;;;23.92;12.95;;;;;;;;;;5032487;28;20026;-67
2022/07/21 04:45:36;;;;;;;22.85;12.15;;;;;;;;;;5034488;28;20037;-67
2022/07/21 04:48:01;;;;;;;22.33;13.88;;;;;;;;;;5034010;28;20031;-67
2022/07/21 04:50:27;;;;;;;23.95;13.52;;;;;;;;;;5029726;28;20514;-67
2022/07/21 04:52:53;;;;;;;27.13;15.15;;;;;;;;;;5032743;28;20033;-67
2022/07/21 04:55:19;;;;;;;22.80;13.35;;;;;;;;;;5028398;28;20033;-67
2022/07/21 04:57:48;;;;;;;21.63;13.00;;;;;;;;;;5013266;28;20030;-67
2022/07/21 05:00:15;;;;;;;23.75;13.57;;;;;;;;;;5016395;28;20018;-67
2022/07/21 05:02:40;;;;;;;21.92;13.48;;;;;;;;;;5033880;28;20040;-67
2022/07/21 05:05:06;;;;;;;19.35;12.68;;;;;;;;;;5033733;28;20401;-67
2022/07/21 05:07:32;;;;;;;23.55;11.95;;;;;;;;;;5033250;28;20067;-67
2022/07/21 05:09:58;;;;;;;16.73;10.38;;;;;;;;;;5033619;28;20025;-68
2022/07/21 05:12:24;;;;;;;14.65;9.50;;;;;;;;;;5033494;28;20418;-68
2022/07/21 05:14:49;;;;;;;17.02;10.00;;;;;;;;;;5033760;28;20048;-68
2022/07/21 05:17:14;;;;;;;18.80;10.18;;;;;;;;;;5033746;28;20029;-68
2022/07/21 05:19:40;;;;;;;17.35;9.63;;;;;;;;;;5031761;28;20113;-68
2022/07/21 05:22:06;;;;;;;16.65;10.32;;;;;;;;;;5014003;28;20026;-68
2022/07/21 05:24:31;;;;;;;19.08;10.85;;;;;;;;;;5032341;28;20116;-68
2022/07/21 05:26:56;;;;;;;19.27;11.45;;;;;;;;;;5033451;28;20022;-68
2022/07/21 05:29:21;;;;;;;20.83;12.23;;;;;;;;;;5033322;28;20029;-68
2022/07/21 05:31:46;;;;;;;22.80;13.27;;;;;;;;;;5030166;28;20442;-68
2022/07/21 05:34:12;;;;;;;20.63;13.90;;;;;;;;;;5033281;28;20481;-68
2022/07/21 05:36:37;;;;;;;24.65;15.32;;;;;;;;;;5031060;28;20029;-68
2022/07/21 05:39:03;;;;;;;30.70;18.10;;;;;;;;;;5025178;28;20103;-67
2022/07/21 05:41:28;;;;;;;41.20;20.25;;;;;;;;;;5012308;28;20032;-68
2022/07/21 05:43:53;;;;;;;31.45;20.00;;;;;;;;;;5011907;28;20060;-68
2022/07/21 05:46:18;;;;;;;35.65;21.50;;;;;;;;;;5011710;28;20029;-68
2022/07/21 05:48:44;;;;;;;54.08;25.13;;;;;;;;;;5014020;28;20025;-67
2022/07/21 05:51:09;;;;;;;47.55;24.42;;;;;;;;;;5014268;28;20037;-67
2022/07/21 05:53:34;;;;;;;45.90;24.80;;;;;;;;;;5012350;28;20085;-67
2022/07/21 05:55:59;;;;;;;57.33;26.23;;;;;;;;;;5011598;28;20040;-67
2022/07/21 05:58:25;;;;;;;50.08;24.58;;;;;;;;;;5016272;28;20029;-67
2022/07/21 06:01:08;;;;;;;43.05;24.10;;;;;;;;;;5013915;28;20666;-67
2022/07/21 06:03:34;;;;;;;143.52;32.58;;;;;;;;;;5011263;28;20040;-67
2022/07/21 06:05:59;;;;;;;67.28;27.63;;;;;;;;;;5013577;28;20021;-67
2022/07/21 06:08:24;;;;;;;48.25;24.00;;;;;;;;;;5016836;28;20060;-67
2022/07/21 06:10:49;;;;;;;36.35;19.13;;;;;;;;;;5032536;28;20029;-67
2022/07/21 06:13:14;;;;;;;30.60;17.85;;;;;;;;;;5047607;28;20026;-67
2022/07/21 06:15:40;;;;;;;36.53;19.88;;;;;;;;;;5032368;28;20040;-67
2022/07/21 06:18:05;;;;;;;28.40;16.15;;;;;;;;;;5032046;28;20041;-68
2022/07/21 06:20:31;;;;;;;26.77;16.10;;;;;;;;;;5032477;28;20017;-67
2022/07/21 06:22:56;;;;;;;30.38;17.65;;;;;;;;;;5031997;28;20025;-67
2022/07/21 06:25:21;;;;;;;28.42;16.55;;;;;;;;;;5028582;28;20053;-67
2022/07/21 06:27:47;;;;;;;26.40;14.73;;;;;;;;;;5028363;28;20029;-67
2022/07/21 06:30:12;;;;;;;19.63;13.60;;;;;;;;;;5030186;28;20101;-67
2022/07/21 06:32:37;;;;;;;25.45;12.98;;;;;;;;;;5031916;28;20041;-67
2022/07/21 06:35:03;;;;;;;16.90;10.43;;;;;;;;;;5029325;28;20382;-67
2022/07/21 06:37:28;;;;;;;12.80;8.57;;;;;;;;;;5031432;28;20448;-67
2022/07/21 06:39:53;;;;;;;12.82;8.52;;;;;;;;;;5032273;28;20018;-67
2022/07/21 06:42:19;;;;;;;13.35;9.20;;;;;;;;;;5031801;28;20100;-67
2022/07/21 06:44:44;;;;;;;13.35;7.93;;;;;;;;;;5032071;28;20063;-67
2022/07/21 06:47:09;;;;;;;11.88;7.50;;;;;;;;;;5031959;28;20470;-67
2022/07/21 06:49:35;;;;;;;11.07;7.07;;;;;;;;;;5031065;28;20494;-67
2022/07/21 06:52:00;;;;;;;12.45;7.25;;;;;;;;;;5031836;28;20102;-67
2022/07/21 06:54:25;;;;;;;11.93;7.25;;;;;;;;;;5031591;28;20538;-67
2022/07/21 06:56:50;;;;;;;12.32;7.32;;;;;;;;;;5031545;28;20129;-68
2022/07/21 06:59:16;;;;;;;12.50;7.50;;;;;;;;;;5031460;28;20026;-67
2022/07/21 07:01:41;;;;;;;10.18;6.35;;;;;;;;;;5031538;28;20359;-67
2022/07/21 07:04:06;;;;;;;9.00;6.65;;;;;;;;;;5031204;28;20049;-68
2022/07/21 07:06:31;;;;;;;11.32;7.40;;;;;;;;;;5030417;28;20022;-67
2022/07/21 07:08:57;;;;;;;12.05;7.18;;;;;;;;;;5030905;28;20037;-67
2022/07/21 07:11:22;;;;;;;11.07;7.40;;;;;;;;;;5031605;28;20052;-68
2022/07/21 07:13:47;;;;;;;11.93;7.45;;;;;;;;;;5031440;28;20080;-68
2022/07/21 07:16:13;;;;;;;11.13;7.50;;;;;;;;;;5031682;28;20022;-68
2022/07/21 07:18:38;;;;;;;11.70;7.45;;;;;;;;;;5031123;28;20025;-67
2022/07/21 07:21:03;;;;;;;8.48;5.95;;;;;;;;;;5031517;28;20017;-68
2022/07/21 07:23:29;;;;;;;9.45;6.38;;;;;;;;;;5031100;28;20045;-68
2022/07/21 07:25:54;;;;;;;11.23;6.47;;;;;;;;;;5028332;28;20028;-68
2022/07/21 07:28:19;;;;;;;11.27;7.05;;;;;;;;;;5029994;28;20036;-68
2022/07/21 07:30:44;;;;;;;9.80;6.82;;;;;;;;;;5031543;28;20025;-68
2022/07/21 07:33:09;;;;;;;10.27;7.30;;;;;;;;;;5031144;28;20038;-68
2022/07/21 07:35:35;;;;;;;10.80;7.05;;;;;;;;;;5031272;28;20615;-67
2022/07/21 07:38:00;;;;;;;11.32;7.43;;;;;;;;;;5031151;28;20480;-68
2022/07/21 07:40:25;;;;;;;10.23;7.55;;;;;;;;;;5031455;28;20389;-68
2022/07/21 07:42:50;;;;;;;9.65;7.47;;;;;;;;;;5030732;28;20040;-68
2022/07/21 07:45:16;;;;;;;9.93;7.70;;;;;;;;;;5031299;28;20029;-68
2022/07/21 07:47:41;;;;;;;12.48;8.02;;;;;;;;;;5030944;28;20079;-68
2022/07/21 07:50:08;;;;;;;10.88;7.85;;;;;;;;;;5031120;28;20541;-68
2022/07/21 07:52:34;;;;;;;9.55;7.22;;;;;;;;;;5030882;28;20045;-68
2022/07/21 07:54:59;;;;;;;11.05;7.70;;;;;;;;;;5031228;28;20031;-68
2022/07/21 07:57:24;;;;;;;11.70;7.90;;;;;;;;;;5031065;28;20363;-68
2022/07/21 07:59:49;;;;;;;13.40;8.73;;;;;;;;;;5030820;28;20370;-68
2022/07/21 08:02:15;;;;;;;12.48;7.70;;;;;;;;;;5031109;28;20057;-68
2022/07/21 08:04:43;;;;;;;10.48;6.90;;;;;;;;;;5024224;28;20021;-68
2022/07/21 08:07:08;;;;;;;10.23;7.40;;;;;;;;;;5025468;28;20781;-68
2022/07/21 08:09:34;;;;;;;9.23;7.10;;;;;;;;;;5029348;28;20017;-69
2022/07/21 08:11:59;;;;;;;9.85;6.63;;;;;;;;;;5030063;28;20033;-69
2022/07/21 08:14:24;;;;;;;9.52;7.20;;;;;;;;;;5032624;28;20067;-68
2022/07/21 08:16:49;;;;;;;9.82;7.90;;;;;;;;;;5032695;28;20053;-68
2022/07/21 08:19:15;;;;;;;10.35;8.13;;;;;;;;;;5032411;28;20691;-68
2022/07/21 08:21:40;;;;;;;14.10;9.23;;;;;;;;;;5031619;28;20378;-67
2022/07/21 08:24:05;;;;;;;12.88;8.93;;;;;;;;;;5031309;28;20025;-68
2022/07/21 08:26:31;;;;;;;12.60;9.75;;;;;;;;;;5029303;28;20108;-68
2022/07/21 08:28:57;;;;;;;11.32;9.50;;;;;;;;;;5034573;28;20041;-68
2022/07/21 08:31:22;;;;;;;12.18;9.25;;;;;;;;;;5032896;28;20022;-68
2022/07/21 08:33:47;;;;;;;13.07;9.27;;;;;;;;;;5030046;28;20029;-68
2022/07/21 08:36:12;;;;;;;12.02;8.30;;;;;;;;;;5033457;28;20030;-68
2022/07/21 08:38:38;;;;;;;11.57;8.68;;;;;;;;;;5033241;28;20017;-68
2022/07/21 08:41:04;;;;;;;9.32;7.82;;;;;;;;;;5034202;28;20032;-68
2022/07/21 08:43:29;;;;;;;10.52;7.97;;;;;;;;;;5033210;28;20100;-68
2022/07/21 08:45:55;;;;;;;8.43;7.10;;;;;;;;;;5034005;28;20155;-68
2022/07/21 08:48:23;;;;;;;8.55;6.70;;;;;;;;;;5032131;28;20049;-68
2022/07/21 08:50:48;;;;;;;9.43;6.13;;;;;;;;;;5033111;28;20065;-67
2022/07/21 08:53:14;;;;;;;6.68;4.28;;;;;;;;;;5030956;28;20115;-67
2022/07/21 08:55:39;;;;;;;6.85;4.72;;;;;;;;;;5029637;28;20466;-67
2022/07/21 08:58:07;;;;;;;6.82;4.50;;;;;;;;;;5033424;28;20064;-68
2022/07/21 09:00:34;;;;;;;6.85;4.93;;;;;;;;;;5031314;28;20104;-68
2022/07/21 09:03:10;;;;;;;7.20;5.40;;;;;;;;;;5031719;28;20031;-68
2022/07/21 09:05:35;;;;;;;10.27;6.47;;;;;;;;;;5031850;28;20024;-67
2022/07/21 09:08:01;;;;;;;9.90;6.82;;;;;;;;;;5031219;28;20449;-67
2022/07/21 09:10:27;;;;;;;9.73;6.63;;;;;;;;;;5024183;28;20107;-67
2022/07/21 09:12:54;;;;;;;9.45;6.32;;;;;;;;;;5032890;28;20017;-68
2022/07/21 09:15:20;;;;;;;10.65;8.13;;;;;;;;;;5032483;28;20542;-68
2022/07/21 09:17:46;;;;;;;10.20;8.60;;;;;;;;;;5030828;28;20393;-68
2022/07/21 09:20:21;;;;;;;11.20;8.77;;;;;;;;;;5032360;28;20033;-68
2022/07/21 09:23:05;;;;;;;11.02;9.68;;;;;;;;;;5017450;28;20125;-68
2022/07/21 09:25:34;;;;;;;11.50;9.18;;;;;;;;;;5030639;28;20024;-68
2022/07/21 09:28:10;;;;;;;11.50;9.88;;;;;;;;;;5033148;28;20436;-67
2022/07/21 09:30:47;;;;;;;10.93;9.02;;;;;;;;;;5030905;28;20018;-68
2022/07/21 09:33:24;;;;;;;13.10;9.25;;;;;;;;;;5031307;28;20167;-67
2022/07/21 09:35:55;;;;;;;9.88;8.27;;;;;;;;;;5031118;28;20026;-67
2022/07/21 09:38:20;;;;;;;12.50;8.63;;;;;;;;;;5029654;28;20032;-68
2022/07/21 09:40:46;;;;;;;11.95;9.18;;;;;;;;;;5029409;28;20021;-68
2022/07/21 09:43:12;;;;;;;15.82;12.65;;;;;;;;;;5032929;28;20025;-67
2022/07/21 09:45:37;;;;;;;53.17;45.00;;;;;;;;;;5030642;28;20500;-67
2022/07/21 09:48:02;;;;;;;54.72;41.42;;;;;;;;;;5028058;28;20512;-67
2022/07/21 09:50:28;;;;;;;27.45;23.83;;;;;;;;;;5028113;28;20031;-68
2022/07/21 09:52:54;;;;;;;17.42;14.65;;;;;;;;;;5030413;28;20044;-68
2022/07/21 09:55:19;;;;;;;14.68;11.98;;;;;;;;;;5031633;28;20029;-68
2022/07/21 09:57:44;;;;;;;14.52;11.57;;;;;;;;;;5028879;28;20088;-68
2022/07/21 10:00:12;;;;;;;13.60;11.48;;;;;;;;;;5030662;28;20441;-68
2022/07/21 10:02:37;;;;;;;16.05;12.35;;;;;;;;;;5029912;28;20033;-67
2022/07/21 10:05:07;;;;;;;13.82;11.80;;;;;;;;;;5031168;28;20045;-67
2022/07/21 10:07:35;;;;;;;13.57;11.80;;;;;;;;;;5029080;28;20040;-68
2022/07/21 10:10:00;;;;;;;13.60;11.93;;;;;;;;;;5030206;28;20051;-68
2022/07/21 10:12:26;;;;;;;12.68;11.00;;;;;;;;;;5029800;28;20025;-68
2022/07/21 10:14:51;;;;;;;13.88;10.63;;;;;;;;;;5030597;28;20021;-68
2022/07/21 10:17:17;;;;;;;12.85;10.25;;;;;;;;;;5029093;28;20592;-68
2022/07/21 10:19:48;;;;;;;11.85;9.80;;;;;;;;;;5025640;28;20025;-68
2022/07/21 10:22:36;;;;;;;12.60;10.20;;;;;;;;;;5030143;28;20048;-68
2022/07/21 10:25:03;;;;;;;10.80;9.50;;;;;;;;;;5026040;28;20024;-68
2022/07/21 10:27:28;;;;;;;14.20;10.52;;;;;;;;;;5028652;28;20033;-68
2022/07/21 10:29:55;;;;;;;12.50;10.23;;;;;;;;;;5028681;28;20017;-68
2022/07/21 10:32:26;;;;;;;13.90;11.50;;;;;;;;;;5029440;28;20543;-68
2022/07/21 10:34:51;;;;;;;15.55;11.68;;;;;;;;;;5028674;28;20024;-68
2022/07/21 10:37:35;;;;;;;14.65;10.80;;;;;;;;;;5028863;28;20025;-68
2022/07/21 10:40:00;;;;;;;13.95;11.93;;;;;;;;;;5030217;28;20029;-69
2022/07/21 10:42:26;;;;;;;15.15;12.07;;;;;;;;;;5029064;28;20600;-68
2022/07/21 10:44:51;;;;;;;17.80;11.07;;;;;;;;;;5030454;28;20466;-68
2022/07/21 10:47:20;;;;;;;15.82;11.90;;;;;;;;;;5029603;28;20026;-69
2022/07/21 10:49:46;;;;;;;14.63;11.50;;;;;;;;;;5029334;28;20030;-69
2022/07/21 10:52:30;;;;;;;14.02;11.15;;;;;;;;;;5029554;28;20041;-68
2022/07/21 10:55:11;;;;;;;14.27;11.07;;;;;;;;;;5028461;28;20025;-69
2022/07/21 10:57:36;;;;;;;15.20;10.90;;;;;;;;;;5029493;28;20394;-68
2022/07/21 11:00:18;;;;;;;14.30;10.97;;;;;;;;;;5024922;28;20025;-68
2022/07/21 11:02:44;;;;;;;12.85;10.23;;;;;;;;;;5028662;28;20272;-68
2022/07/21 11:05:09;;;;;;;11.68;7.93;;;;;;;;;;5029937;28;20013;-68
2022/07/21 11:07:53;;;;;;;10.95;9.32;;;;;;;;;;5030492;28;20485;-68
2022/07/21 11:10:19;;;;;;;12.45;9.35;;;;;;;;;;5029615;28;20029;-67
2022/07/21 11:12:56;;;;;;;10.55;8.05;;;;;;;;;;5030928;28;20033;-68
2022/07/21 11:15:40;;;;;;;12.30;8.18;;;;;;;;;;5028813;28;20494;-68
2022/07/21 11:18:07;;;;;;;10.70;8.82;;;;;;;;;;5030884;28;20017;-69
2022/07/21 11:20:32;;;;;;;15.38;9.60;;;;;;;;;;5031421;28;20032;-68
2022/07/21 11:23:02;;;;;;;11.82;9.35;;;;;;;;;;5030771;28;20022;-68
2022/07/21 11:25:28;;;;;;;11.38;9.60;;;;;;;;;;5029913;28;20032;-68
2022/07/21 11:27:54;;;;;;;13.75;9.40;;;;;;;;;;5028859;28;20033;-68
2022/07/21 11:30:19;;;;;;;11.10;8.93;;;;;;;;;;5030357;28;20075;-68
2022/07/21 11:32:48;;;;;;;10.50;8.65;;;;;;;;;;5028816;28;20028;-68
2022/07/21 11:35:14;;;;;;;14.10;9.05;;;;;;;;;;5031143;28;20504;-68
2022/07/21 11:37:43;;;;;;;10.30;7.90;;;;;;;;;;5029919;28;20069;-68
2022/07/21 11:40:13;;;;;;;10.57;8.13;;;;;;;;;;5029169;28;20025;-68
2022/07/21 11:42:38;;;;;;;12.02;8.65;;;;;;;;;;5028864;28;20073;-67
2022/07/21 11:45:04;;;;;;;12.90;9.20;;;;;;;;;;5031049;28;20030;-67
2022/07/21 11:47:29;;;;;;;12.40;10.18;;;;;;;;;;5031906;28;20105;-67
2022/07/21 11:49:56;;;;;;;12.95;9.60;;;;;;;;;;5033993;28;20437;-67
2022/07/21 11:52:25;;;;;;;12.02;9.32;;;;;;;;;;5033319;28;20455;-67
2022/07/21 11:54:52;;;;;;;14.27;10.00;;;;;;;;;;5031828;28;20022;-67
2022/07/21 11:57:18;;;;;;;12.73;8.27;;;;;;;;;;5027116;28;20528;-67
2022/07/21 11:59:44;;;;;;;11.93;8.40;;;;;;;;;;5032990;28;20024;-67
2022/07/21 12:02:13;;;;;;;12.25;8.93;;;;;;;;;;5031095;28;20018;-67
2022/07/21 12:04:44;;;;;;;11.38;8.43;;;;;;;;;;5032791;28;20022;-67
2022/07/21 12:07:16;;;;;;;11.70;8.67;;;;;;;;;;5028058;28;20030;-67
2022/07/21 12:09:43;;;;;;;11.45;8.00;;;;;;;;;;5034572;28;20351;-67
2022/07/21 12:12:08;;;;;;;11.25;8.88;;;;;;;;;;5034790;28;20432;-67
2022/07/21 12:14:44;;;;;;;14.07;10.27;;;;;;;;;;5034378;28;20104;-68
2022/07/21 12:17:10;;;;;;;13.00;9.25;;;;;;;;;;5034472;28;20397;-67
2022/07/21 12:19:35;;;;;;;15.57;10.55;;;;;;;;;;5034295;28;20021;-68
2022/07/21 12:22:01;;;;;;;14.70;10.02;;;;;;;;;;5034371;28;20104;-68
2022/07/21 12:24:45;;;;;;;13.15;9.93;;;;;;;;;;5033497;28;20382;-67
2022/07/21 12:27:11;;;;;;;13.27;9.40;;;;;;;;;;5031112;28;20473;-67
2022/07/21 12:29:36;;;;;;;14.60;10.27;;;;;;;;;;5032980;28;20025;-67
2022/07/21 12:32:01;;;;;;;12.65;9.70;;;;;;;;;;5034824;28;20033;-67
2022/07/21 12:34:26;;;;;;;11.68;8.82;;;;;;;;;;5032974;28;20755;-67
2022/07/21 12:36:52;;;;;;;9.45;6.90;;;;;;;;;;5031187;28;20028;-67
2022/07/21 12:39:55;;;;;;;10.27;7.03;;;;;;;;;;5032436;28;20018;-67
2022/07/21 12:42:02;;;;;;;12.48;7.70;;;;;;;;;;5031554;28;20030;-67
2022/07/21 12:44:29;;;;;;;10.98;7.90;;;;;;;;;;5032684;28;20359;-67
2022/07/21 12:46:54;;;;;;;10.20;8.13;;;;;;;;;;5032088;28;20533;-67
2022/07/21 12:49:20;;;;;;;9.73;6.68;;;;;;;;;;5031615;28;20116;-67
2022/07/21 12:51:54;;;;;;;7.13;4.75;;;;;;;;;;5034030;28;20034;-67
2022/07/21 12:54:20;;;;;;;9.38;6.20;;;;;;;;;;5031423;28;20025;-67
2022/07/21 12:56:45;;;;;;;8.63;6.00;;;;;;;;;;5031274;28;20033;-67
2022/07/21 12:59:14;;;;;;;9.02;6.82;;;;;;;;;;5031521;28;20018;-67
2022/07/21 13:01:39;;;;;;;11.50;7.60;;;;;;;;;;5031506;28;20476;-67
2022/07/21 13:04:05;;;;;;;10.45;6.80;;;;;;;;;;5029094;28;20024;-67
2022/07/21 13:06:30;;;;;;;8.20;5.93;;;;;;;;;;5031146;28;20041;-67
2022/07/21 13:08:56;;;;;;;9.85;5.03;;;;;;;;;;5032577;28;20056;-67
2022/07/21 13:11:21;;;;;;;10.05;5.40;;;;;;;;;;5030792;28;20496;-67
2022/07/21 13:13:47;;;;;;;10.00;5.57;;;;;;;;;;5031982;28;20104;-67
2022/07/21 13:16:13;;;;;;;9.93;5.53;;;;;;;;;;5029840;28;20116;-67
2022/07/21 13:18:38;;;;;;;9.98;5.70;;;;;;;;;;5029537;28;20105;-67
2022/07/21 13:21:04;;;;;;;8.52;5.22;;;;;;;;;;5022393;28;20013;-67
2022/07/21 13:23:29;;;;;;;9.45;5.40;;;;;;;;;;5031784;28;20524;-67
2022/07/21 13:25:55;;;;;;;9.48;5.15;;;;;;;;;;5030230;28;20025;-67
2022/07/21 13:28:20;;;;;;;9.38;5.30;;;;;;;;;;5031735;28;20029;-68
2022/07/21 13:30:46;;;;;;;8.85;4.72;;;;;;;;;;5032777;28;20022;-68
2022/07/21 13:33:11;;;;;;;7.20;4.32;;;;;;;;;;5032220;28;20025;-67
2022/07/21 13:35:37;;;;;;;7.68;4.90;;;;;;;;;;5030714;28;20037;-68
2022/07/21 13:38:02;;;;;;;9.13;5.40;;;;;;;;;;5032850;28;20025;-67
2022/07/21 13:40:28;;;;;;;10.93;5.80;;;;;;;;;;5032041;28;20034;-67
2022/07/21 13:42:53;;;;;;;11.18;6.05;;;;;;;;;;5031406;28;20053;-67
2022/07/21 13:45:18;;;;;;;9.63;5.65;;;;;;;;;;5028605;28;20048;-67
2022/07/21 13:47:44;;;;;;;8.57;5.43;;;;;;;;;;5030202;28;20498;-67
2022/07/21 13:50:09;;;;;;;8.15;4.97;;;;;;;;;;5030061;28;20029;-67
2022/07/21 13:52:35;;;;;;;8.90;5.20;;;;;;;;;;5030781;28;20045;-68
2022/07/21 13:55:01;;;;;;;8.40;4.82;;;;;;;;;;5032896;28;20017;-68
2022/07/21 13:57:26;;;;;;;8.20;4.85;;;;;;;;;;5031384;28;20064;-67
2022/07/21 13:59:51;;;;;;;7.03;4.43;;;;;;;;;;5032113;28;20040;-67
2022/07/21 14:02:17;;;;;;;9.93;5.00;;;;;;;;;;5029726;28;20029;-67
2022/07/21 14:04:42;;;;;;;8.70;4.85;;;;;;;;;;5029936;28;20018;-67
2022/07/21 14:07:07;;;;;;;8.73;5.40;;;;;;;;;;5030346;28;20540;-67
2022/07/21 14:09:33;;;;;;;9.05;5.13;;;;;;;;;;5029771;28;20044;-67
2022/07/21 14:11:58;;;;;;;8.88;4.80;;;;;;;;;;5028956;28;20497;-67
2022/07/21 14:14:26;;;;;;;8.27;4.82;;;;;;;;;;5028776;28;20502;-67
2022/07/21 14:16:53;;;;;;;8.20;5.40;;;;;;;;;;5029999;28;20029;-67
2022/07/21 14:19:18;;;;;;;9.45;5.70;;;;;;;;;;5030313;28;20048;-67
2022/07/21 14:21:43;;;;;;;10.43;5.45;;;;;;;;;;5026388;28;20017;-67
2022/07/21 14:26:52;;;;;;;8.63;5.85;;;;;;;;;;5028971;28;20091;-67